<?xml version="1.0" encoding="UTF-8" standalone="no" ?>
<gpx xmlns="http://www.topografix.com/GPX/1/1" xmlns:xsi="http://www.w3.org/2001/XMLSchema-instance" xsi:schemaLocation="http://www.topografix.com/GPX/1/1 http://www.topografix.com/GPX/1/1/gpx.xsd" version="1.1" creator="VisuGPX - https://www.visugpx.com">
  <metadata>
    <name>De Corbigny à Prémery</name>
    <desc><![CDATA[LE CHEMIN VERS COMPOSTELLE, LA VOIE DE VEZELAY PAR NEVERS]]></desc>
  </metadata>
  <trk>
    <name><![CDATA[9542520-Corbigny - Prémery]]></name>
    <trkseg>
      <trkpt lat="47.25709" lon="3.68462">
        <ele>199</ele>
        <time>2019-02-05T15:30:36Z</time>
      </trkpt>
      <trkpt lat="47.25739" lon="3.68433">
        <ele>199</ele>
        <time>2019-02-05T15:31:36Z</time>
      </trkpt>
      <trkpt lat="47.25727" lon="3.68413">
        <ele>199</ele>
        <time>2019-02-05T15:32:36Z</time>
      </trkpt>
      <trkpt lat="47.25694" lon="3.68367">
        <ele>199</ele>
        <time>2019-02-05T15:33:36Z</time>
      </trkpt>
      <trkpt lat="47.2565" lon="3.68275">
        <ele>201</ele>
        <time>2019-02-05T15:34:36Z</time>
      </trkpt>
      <trkpt lat="47.25621" lon="3.68247">
        <ele>202</ele>
        <time>2019-02-05T15:35:36Z</time>
      </trkpt>
      <trkpt lat="47.25596" lon="3.68212">
        <ele>204</ele>
        <time>2019-02-05T15:36:36Z</time>
      </trkpt>
      <trkpt lat="47.25565" lon="3.68179">
        <ele>205</ele>
        <time>2019-02-05T15:37:36Z</time>
      </trkpt>
      <trkpt lat="47.25539" lon="3.68134">
        <ele>206</ele>
        <time>2019-02-05T15:38:36Z</time>
      </trkpt>
      <trkpt lat="47.25487" lon="3.68047">
        <ele>208</ele>
        <time>2019-02-05T15:39:36Z</time>
      </trkpt>
      <trkpt lat="47.25449" lon="3.67989">
        <ele>209</ele>
        <time>2019-02-05T15:40:36Z</time>
      </trkpt>
      <trkpt lat="47.25438" lon="3.67952">
        <ele>210</ele>
        <time>2019-02-05T15:41:36Z</time>
      </trkpt>
      <trkpt lat="47.25425" lon="3.67925">
        <ele>212</ele>
        <time>2019-02-05T15:42:36Z</time>
      </trkpt>
      <trkpt lat="47.25398" lon="3.67841">
        <ele>211</ele>
        <time>2019-02-05T15:43:36Z</time>
      </trkpt>
      <trkpt lat="47.25377" lon="3.67744">
        <ele>214</ele>
        <time>2019-02-05T15:44:36Z</time>
      </trkpt>
      <trkpt lat="47.25327" lon="3.6752">
        <ele>220</ele>
        <time>2019-02-05T15:45:36Z</time>
      </trkpt>
      <trkpt lat="47.253" lon="3.67395">
        <ele>224</ele>
        <time>2019-02-05T15:46:36Z</time>
      </trkpt>
      <trkpt lat="47.25307" lon="3.67362">
        <ele>223</ele>
        <time>2019-02-05T15:47:36Z</time>
      </trkpt>
      <trkpt lat="47.25308" lon="3.67304">
        <ele>222</ele>
        <time>2019-02-05T15:48:36Z</time>
      </trkpt>
      <trkpt lat="47.25323" lon="3.67244">
        <ele>222</ele>
        <time>2019-02-05T15:49:36Z</time>
      </trkpt>
      <trkpt lat="47.25343" lon="3.67153">
        <ele>222</ele>
        <time>2019-02-05T15:50:36Z</time>
      </trkpt>
      <trkpt lat="47.25345" lon="3.67091">
        <ele>222</ele>
        <time>2019-02-05T15:51:36Z</time>
      </trkpt>
      <trkpt lat="47.25337" lon="3.66945">
        <ele>226</ele>
        <time>2019-02-05T15:52:36Z</time>
      </trkpt>
      <trkpt lat="47.25329" lon="3.6683">
        <ele>232</ele>
        <time>2019-02-05T15:53:36Z</time>
      </trkpt>
      <trkpt lat="47.25337" lon="3.66778">
        <ele>234</ele>
        <time>2019-02-05T15:54:36Z</time>
      </trkpt>
      <trkpt lat="47.25353" lon="3.66724">
        <ele>236</ele>
        <time>2019-02-05T15:55:36Z</time>
      </trkpt>
      <trkpt lat="47.2536" lon="3.66697">
        <ele>236</ele>
        <time>2019-02-05T15:56:36Z</time>
      </trkpt>
      <trkpt lat="47.25364" lon="3.66633">
        <ele>236</ele>
        <time>2019-02-05T15:57:36Z</time>
      </trkpt>
      <trkpt lat="47.25386" lon="3.66578">
        <ele>238</ele>
        <time>2019-02-05T15:58:36Z</time>
      </trkpt>
      <trkpt lat="47.25439" lon="3.66502">
        <ele>239</ele>
        <time>2019-02-05T15:59:36Z</time>
      </trkpt>
      <trkpt lat="47.25523" lon="3.66406">
        <ele>239</ele>
        <time>2019-02-05T16:00:36Z</time>
      </trkpt>
      <trkpt lat="47.25596" lon="3.6633">
        <ele>237</ele>
        <time>2019-02-05T16:01:36Z</time>
      </trkpt>
      <trkpt lat="47.25657" lon="3.66269">
        <ele>236</ele>
        <time>2019-02-05T16:02:36Z</time>
      </trkpt>
      <trkpt lat="47.25693" lon="3.66205">
        <ele>234</ele>
        <time>2019-02-05T16:03:36Z</time>
      </trkpt>
      <trkpt lat="47.25745" lon="3.66105">
        <ele>230</ele>
        <time>2019-02-05T16:04:36Z</time>
      </trkpt>
      <trkpt lat="47.25801" lon="3.65998">
        <ele>225</ele>
        <time>2019-02-05T16:05:36Z</time>
      </trkpt>
      <trkpt lat="47.25856" lon="3.65877">
        <ele>220</ele>
        <time>2019-02-05T16:06:36Z</time>
      </trkpt>
      <trkpt lat="47.25902" lon="3.65783">
        <ele>217</ele>
        <time>2019-02-05T16:07:36Z</time>
      </trkpt>
      <trkpt lat="47.25959" lon="3.65704">
        <ele>214</ele>
        <time>2019-02-05T16:08:36Z</time>
      </trkpt>
      <trkpt lat="47.25981" lon="3.65668">
        <ele>212</ele>
        <time>2019-02-05T16:09:36Z</time>
      </trkpt>
      <trkpt lat="47.26023" lon="3.65631">
        <ele>212</ele>
        <time>2019-02-05T16:10:36Z</time>
      </trkpt>
      <trkpt lat="47.26041" lon="3.65572">
        <ele>210</ele>
        <time>2019-02-05T16:11:36Z</time>
      </trkpt>
      <trkpt lat="47.26064" lon="3.65482">
        <ele>210</ele>
        <time>2019-02-05T16:12:36Z</time>
      </trkpt>
      <trkpt lat="47.26061" lon="3.65421">
        <ele>207</ele>
        <time>2019-02-05T16:13:36Z</time>
      </trkpt>
      <trkpt lat="47.26053" lon="3.65376">
        <ele>205</ele>
        <time>2019-02-05T16:14:36Z</time>
      </trkpt>
      <trkpt lat="47.26044" lon="3.65323">
        <ele>203</ele>
        <time>2019-02-05T16:15:36Z</time>
      </trkpt>
      <trkpt lat="47.26038" lon="3.65311">
        <ele>203</ele>
        <time>2019-02-05T16:16:36Z</time>
      </trkpt>
      <trkpt lat="47.26012" lon="3.65289">
        <ele>203</ele>
        <time>2019-02-05T16:17:36Z</time>
      </trkpt>
      <trkpt lat="47.25972" lon="3.65252">
        <ele>202</ele>
        <time>2019-02-05T16:18:36Z</time>
      </trkpt>
      <trkpt lat="47.25986" lon="3.65116">
        <ele>201</ele>
        <time>2019-02-05T16:19:36Z</time>
      </trkpt>
      <trkpt lat="47.25981" lon="3.65071">
        <ele>199</ele>
        <time>2019-02-05T16:20:36Z</time>
      </trkpt>
      <trkpt lat="47.25937" lon="3.64881">
        <ele>189</ele>
        <time>2019-02-05T16:21:36Z</time>
      </trkpt>
      <trkpt lat="47.25894" lon="3.64698">
        <ele>189</ele>
        <time>2019-02-05T16:22:36Z</time>
      </trkpt>
      <trkpt lat="47.25853" lon="3.64509">
        <ele>193</ele>
        <time>2019-02-05T16:23:36Z</time>
      </trkpt>
      <trkpt lat="47.25802" lon="3.64466">
        <ele>196</ele>
        <time>2019-02-05T16:24:36Z</time>
      </trkpt>
      <trkpt lat="47.25706" lon="3.64383">
        <ele>204</ele>
        <time>2019-02-05T16:25:36Z</time>
      </trkpt>
      <trkpt lat="47.25654" lon="3.64338">
        <ele>207</ele>
        <time>2019-02-05T16:26:36Z</time>
      </trkpt>
      <trkpt lat="47.25601" lon="3.64261">
        <ele>208</ele>
        <time>2019-02-05T16:27:36Z</time>
      </trkpt>
      <trkpt lat="47.25566" lon="3.64161">
        <ele>207</ele>
        <time>2019-02-05T16:28:36Z</time>
      </trkpt>
      <trkpt lat="47.25539" lon="3.64092">
        <ele>206</ele>
        <time>2019-02-05T16:29:36Z</time>
      </trkpt>
      <trkpt lat="47.25532" lon="3.64081">
        <ele>206</ele>
        <time>2019-02-05T16:30:36Z</time>
      </trkpt>
      <trkpt lat="47.25522" lon="3.64087">
        <ele>206</ele>
        <time>2019-02-05T16:31:36Z</time>
      </trkpt>
      <trkpt lat="47.25498" lon="3.6412">
        <ele>207</ele>
        <time>2019-02-05T16:32:36Z</time>
      </trkpt>
      <trkpt lat="47.25484" lon="3.6413">
        <ele>208</ele>
        <time>2019-02-05T16:33:36Z</time>
      </trkpt>
      <trkpt lat="47.25449" lon="3.64131">
        <ele>209</ele>
        <time>2019-02-05T16:34:36Z</time>
      </trkpt>
      <trkpt lat="47.25409" lon="3.64133">
        <ele>210</ele>
        <time>2019-02-05T16:35:36Z</time>
      </trkpt>
      <trkpt lat="47.2538" lon="3.64138">
        <ele>210</ele>
        <time>2019-02-05T16:36:36Z</time>
      </trkpt>
      <trkpt lat="47.25349" lon="3.64161">
        <ele>211</ele>
        <time>2019-02-05T16:37:36Z</time>
      </trkpt>
      <trkpt lat="47.25277" lon="3.64243">
        <ele>217</ele>
        <time>2019-02-05T16:38:36Z</time>
      </trkpt>
      <trkpt lat="47.25222" lon="3.64281">
        <ele>223</ele>
        <time>2019-02-05T16:39:36Z</time>
      </trkpt>
      <trkpt lat="47.25068" lon="3.64385">
        <ele>234</ele>
        <time>2019-02-05T16:40:36Z</time>
      </trkpt>
      <trkpt lat="47.24967" lon="3.64436">
        <ele>236</ele>
        <time>2019-02-05T16:41:36Z</time>
      </trkpt>
      <trkpt lat="47.24916" lon="3.64455">
        <ele>236</ele>
        <time>2019-02-05T16:42:36Z</time>
      </trkpt>
      <trkpt lat="47.24888" lon="3.64451">
        <ele>235</ele>
        <time>2019-02-05T16:43:36Z</time>
      </trkpt>
      <trkpt lat="47.24856" lon="3.64436">
        <ele>234</ele>
        <time>2019-02-05T16:44:36Z</time>
      </trkpt>
      <trkpt lat="47.24798" lon="3.64395">
        <ele>234</ele>
        <time>2019-02-05T16:45:36Z</time>
      </trkpt>
      <trkpt lat="47.24755" lon="3.64387">
        <ele>235</ele>
        <time>2019-02-05T16:46:36Z</time>
      </trkpt>
      <trkpt lat="47.24608" lon="3.64365">
        <ele>239</ele>
        <time>2019-02-05T16:47:36Z</time>
      </trkpt>
      <trkpt lat="47.24437" lon="3.64343">
        <ele>248</ele>
        <time>2019-02-05T16:48:36Z</time>
      </trkpt>
      <trkpt lat="47.24163" lon="3.643">
        <ele>261</ele>
        <time>2019-02-05T16:49:36Z</time>
      </trkpt>
      <trkpt lat="47.24083" lon="3.64281">
        <ele>261</ele>
        <time>2019-02-05T16:50:36Z</time>
      </trkpt>
      <trkpt lat="47.24008" lon="3.64245">
        <ele>261</ele>
        <time>2019-02-05T16:51:36Z</time>
      </trkpt>
      <trkpt lat="47.23902" lon="3.6419">
        <ele>256</ele>
        <time>2019-02-05T16:52:36Z</time>
      </trkpt>
      <trkpt lat="47.23854" lon="3.6416">
        <ele>252</ele>
        <time>2019-02-05T16:53:36Z</time>
      </trkpt>
      <trkpt lat="47.23809" lon="3.64091">
        <ele>251</ele>
        <time>2019-02-05T16:54:36Z</time>
      </trkpt>
      <trkpt lat="47.23744" lon="3.63988">
        <ele>254</ele>
        <time>2019-02-05T16:55:36Z</time>
      </trkpt>
      <trkpt lat="47.23728" lon="3.63938">
        <ele>256</ele>
        <time>2019-02-05T16:56:36Z</time>
      </trkpt>
      <trkpt lat="47.23714" lon="3.63901">
        <ele>257</ele>
        <time>2019-02-05T16:57:36Z</time>
      </trkpt>
      <trkpt lat="47.23704" lon="3.63846">
        <ele>258</ele>
        <time>2019-02-05T16:58:36Z</time>
      </trkpt>
      <trkpt lat="47.23671" lon="3.63733">
        <ele>260</ele>
        <time>2019-02-05T16:59:36Z</time>
      </trkpt>
      <trkpt lat="47.2356" lon="3.6356">
        <ele>259</ele>
        <time>2019-02-05T17:00:36Z</time>
      </trkpt>
      <trkpt lat="47.23483" lon="3.63444">
        <ele>257</ele>
        <time>2019-02-05T17:01:36Z</time>
      </trkpt>
      <trkpt lat="47.23401" lon="3.63345">
        <ele>259</ele>
        <time>2019-02-05T17:02:36Z</time>
      </trkpt>
      <trkpt lat="47.23373" lon="3.63349">
        <ele>259</ele>
        <time>2019-02-05T17:03:36Z</time>
      </trkpt>
      <trkpt lat="47.23245" lon="3.63326">
        <ele>256</ele>
        <time>2019-02-05T17:04:36Z</time>
      </trkpt>
      <trkpt lat="47.23201" lon="3.63276">
        <ele>253</ele>
        <time>2019-02-05T17:05:36Z</time>
      </trkpt>
      <trkpt lat="47.23171" lon="3.63241">
        <ele>253</ele>
        <time>2019-02-05T17:06:36Z</time>
      </trkpt>
      <trkpt lat="47.23133" lon="3.63209">
        <ele>250</ele>
        <time>2019-02-05T17:07:36Z</time>
      </trkpt>
      <trkpt lat="47.23074" lon="3.63163">
        <ele>247</ele>
        <time>2019-02-05T17:08:36Z</time>
      </trkpt>
      <trkpt lat="47.23042" lon="3.63109">
        <ele>247</ele>
        <time>2019-02-05T17:09:36Z</time>
      </trkpt>
      <trkpt lat="47.23004" lon="3.63036">
        <ele>246</ele>
        <time>2019-02-05T17:10:36Z</time>
      </trkpt>
      <trkpt lat="47.22984" lon="3.62965">
        <ele>248</ele>
        <time>2019-02-05T17:11:36Z</time>
      </trkpt>
      <trkpt lat="47.22938" lon="3.62888">
        <ele>249</ele>
        <time>2019-02-05T17:12:36Z</time>
      </trkpt>
      <trkpt lat="47.22944" lon="3.62736">
        <ele>252</ele>
        <time>2019-02-05T17:13:36Z</time>
      </trkpt>
      <trkpt lat="47.22946" lon="3.62692">
        <ele>253</ele>
        <time>2019-02-05T17:14:36Z</time>
      </trkpt>
      <trkpt lat="47.22955" lon="3.62648">
        <ele>254</ele>
        <time>2019-02-05T17:15:36Z</time>
      </trkpt>
      <trkpt lat="47.22965" lon="3.62589">
        <ele>254</ele>
        <time>2019-02-05T17:16:36Z</time>
      </trkpt>
      <trkpt lat="47.22956" lon="3.6251">
        <ele>252</ele>
        <time>2019-02-05T17:17:36Z</time>
      </trkpt>
      <trkpt lat="47.22944" lon="3.62483">
        <ele>251</ele>
        <time>2019-02-05T17:18:36Z</time>
      </trkpt>
      <trkpt lat="47.22925" lon="3.62267">
        <ele>245</ele>
        <time>2019-02-05T17:19:36Z</time>
      </trkpt>
      <trkpt lat="47.2289" lon="3.62127">
        <ele>241</ele>
        <time>2019-02-05T17:20:36Z</time>
      </trkpt>
      <trkpt lat="47.2288" lon="3.62068">
        <ele>241</ele>
        <time>2019-02-05T17:21:36Z</time>
      </trkpt>
      <trkpt lat="47.22846" lon="3.6199">
        <ele>241</ele>
        <time>2019-02-05T17:22:36Z</time>
      </trkpt>
      <trkpt lat="47.22821" lon="3.61822">
        <ele>240</ele>
        <time>2019-02-05T17:23:36Z</time>
      </trkpt>
      <trkpt lat="47.22798" lon="3.61707">
        <ele>243</ele>
        <time>2019-02-05T17:24:36Z</time>
      </trkpt>
      <trkpt lat="47.22806" lon="3.61521">
        <ele>246</ele>
        <time>2019-02-05T17:25:36Z</time>
      </trkpt>
      <trkpt lat="47.22796" lon="3.61406">
        <ele>245</ele>
        <time>2019-02-05T17:26:36Z</time>
      </trkpt>
      <trkpt lat="47.2281" lon="3.6115">
        <ele>243</ele>
        <time>2019-02-05T17:27:36Z</time>
      </trkpt>
      <trkpt lat="47.22819" lon="3.61035">
        <ele>239</ele>
        <time>2019-02-05T17:28:36Z</time>
      </trkpt>
      <trkpt lat="47.22947" lon="3.60447">
        <ele>238</ele>
        <time>2019-02-05T17:29:36Z</time>
      </trkpt>
      <trkpt lat="47.22984" lon="3.60252">
        <ele>233</ele>
        <time>2019-02-05T17:30:36Z</time>
      </trkpt>
      <trkpt lat="47.22985" lon="3.60211">
        <ele>234</ele>
        <time>2019-02-05T17:31:36Z</time>
      </trkpt>
      <trkpt lat="47.22978" lon="3.60031">
        <ele>235</ele>
        <time>2019-02-05T17:32:36Z</time>
      </trkpt>
      <trkpt lat="47.22969" lon="3.59919">
        <ele>232</ele>
        <time>2019-02-05T17:33:36Z</time>
      </trkpt>
      <trkpt lat="47.22967" lon="3.59882">
        <ele>231</ele>
        <time>2019-02-05T17:34:36Z</time>
      </trkpt>
      <trkpt lat="47.22994" lon="3.59788">
        <ele>231</ele>
        <time>2019-02-05T17:35:36Z</time>
      </trkpt>
      <trkpt lat="47.23002" lon="3.59728">
        <ele>233</ele>
        <time>2019-02-05T17:36:36Z</time>
      </trkpt>
      <trkpt lat="47.23008" lon="3.59651">
        <ele>237</ele>
        <time>2019-02-05T17:37:36Z</time>
      </trkpt>
      <trkpt lat="47.23008" lon="3.5953">
        <ele>239</ele>
        <time>2019-02-05T17:38:36Z</time>
      </trkpt>
      <trkpt lat="47.23004" lon="3.59473">
        <ele>240</ele>
        <time>2019-02-05T17:39:36Z</time>
      </trkpt>
      <trkpt lat="47.2298" lon="3.594">
        <ele>240</ele>
        <time>2019-02-05T17:40:36Z</time>
      </trkpt>
      <trkpt lat="47.22965" lon="3.59321">
        <ele>240</ele>
        <time>2019-02-05T17:41:36Z</time>
      </trkpt>
      <trkpt lat="47.22938" lon="3.59012">
        <ele>248</ele>
        <time>2019-02-05T17:42:36Z</time>
      </trkpt>
      <trkpt lat="47.22943" lon="3.58848">
        <ele>253</ele>
        <time>2019-02-05T17:43:36Z</time>
      </trkpt>
      <trkpt lat="47.22937" lon="3.58792">
        <ele>254</ele>
        <time>2019-02-05T17:44:36Z</time>
      </trkpt>
      <trkpt lat="47.22909" lon="3.58545">
        <ele>247</ele>
        <time>2019-02-05T17:45:36Z</time>
      </trkpt>
      <trkpt lat="47.22876" lon="3.58357">
        <ele>245</ele>
        <time>2019-02-05T17:46:36Z</time>
      </trkpt>
      <trkpt lat="47.2287" lon="3.5826">
        <ele>245</ele>
        <time>2019-02-05T17:47:36Z</time>
      </trkpt>
      <trkpt lat="47.22874" lon="3.58174">
        <ele>246</ele>
        <time>2019-02-05T17:48:36Z</time>
      </trkpt>
      <trkpt lat="47.22882" lon="3.58102">
        <ele>244</ele>
        <time>2019-02-05T17:49:36Z</time>
      </trkpt>
      <trkpt lat="47.2288" lon="3.5803">
        <ele>242</ele>
        <time>2019-02-05T17:50:36Z</time>
      </trkpt>
      <trkpt lat="47.2289" lon="3.57996">
        <ele>241</ele>
        <time>2019-02-05T17:51:36Z</time>
      </trkpt>
      <trkpt lat="47.22896" lon="3.5793">
        <ele>238</ele>
        <time>2019-02-05T17:52:36Z</time>
      </trkpt>
      <trkpt lat="47.22914" lon="3.57857">
        <ele>237</ele>
        <time>2019-02-05T17:53:36Z</time>
      </trkpt>
      <trkpt lat="47.22932" lon="3.57825">
        <ele>236</ele>
        <time>2019-02-05T17:54:36Z</time>
      </trkpt>
      <trkpt lat="47.22929" lon="3.57759">
        <ele>237</ele>
        <time>2019-02-05T17:55:36Z</time>
      </trkpt>
      <trkpt lat="47.22935" lon="3.57677">
        <ele>236</ele>
        <time>2019-02-05T17:56:36Z</time>
      </trkpt>
      <trkpt lat="47.22955" lon="3.57572">
        <ele>236</ele>
        <time>2019-02-05T17:57:36Z</time>
      </trkpt>
      <trkpt lat="47.22971" lon="3.57511">
        <ele>236</ele>
        <time>2019-02-05T17:58:36Z</time>
      </trkpt>
      <trkpt lat="47.2292" lon="3.57433">
        <ele>237</ele>
        <time>2019-02-05T17:59:36Z</time>
      </trkpt>
      <trkpt lat="47.22924" lon="3.57309">
        <ele>234</ele>
        <time>2019-02-05T18:00:36Z</time>
      </trkpt>
      <trkpt lat="47.22903" lon="3.57189">
        <ele>237</ele>
        <time>2019-02-05T18:01:36Z</time>
      </trkpt>
      <trkpt lat="47.22883" lon="3.57082">
        <ele>240</ele>
        <time>2019-02-05T18:02:36Z</time>
      </trkpt>
      <trkpt lat="47.22858" lon="3.57013">
        <ele>245</ele>
        <time>2019-02-05T18:03:36Z</time>
      </trkpt>
      <trkpt lat="47.22818" lon="3.56901">
        <ele>250</ele>
        <time>2019-02-05T18:04:36Z</time>
      </trkpt>
      <trkpt lat="47.22763" lon="3.56729">
        <ele>259</ele>
        <time>2019-02-05T18:05:36Z</time>
      </trkpt>
      <trkpt lat="47.22737" lon="3.56651">
        <ele>264</ele>
        <time>2019-02-05T18:06:36Z</time>
      </trkpt>
      <trkpt lat="47.22702" lon="3.56582">
        <ele>268</ele>
        <time>2019-02-05T18:07:36Z</time>
      </trkpt>
      <trkpt lat="47.22693" lon="3.56534">
        <ele>267</ele>
        <time>2019-02-05T18:08:36Z</time>
      </trkpt>
      <trkpt lat="47.22695" lon="3.56473">
        <ele>266</ele>
        <time>2019-02-05T18:09:36Z</time>
      </trkpt>
      <trkpt lat="47.22709" lon="3.56363">
        <ele>259</ele>
        <time>2019-02-05T18:10:36Z</time>
      </trkpt>
      <trkpt lat="47.22708" lon="3.56278">
        <ele>253</ele>
        <time>2019-02-05T18:11:36Z</time>
      </trkpt>
      <trkpt lat="47.2272" lon="3.56083">
        <ele>235</ele>
        <time>2019-02-05T18:12:36Z</time>
      </trkpt>
      <trkpt lat="47.22726" lon="3.56026">
        <ele>232</ele>
        <time>2019-02-05T18:13:36Z</time>
      </trkpt>
      <trkpt lat="47.2271" lon="3.55842">
        <ele>233</ele>
        <time>2019-02-05T18:14:36Z</time>
      </trkpt>
      <trkpt lat="47.22672" lon="3.5571">
        <ele>233</ele>
        <time>2019-02-05T18:15:36Z</time>
      </trkpt>
      <trkpt lat="47.22654" lon="3.55555">
        <ele>230</ele>
        <time>2019-02-05T18:16:36Z</time>
      </trkpt>
      <trkpt lat="47.22643" lon="3.55374">
        <ele>230</ele>
        <time>2019-02-05T18:17:36Z</time>
      </trkpt>
      <trkpt lat="47.22644" lon="3.55252">
        <ele>239</ele>
        <time>2019-02-05T18:18:36Z</time>
      </trkpt>
      <trkpt lat="47.2266" lon="3.55143">
        <ele>244</ele>
        <time>2019-02-05T18:19:36Z</time>
      </trkpt>
      <trkpt lat="47.22653" lon="3.55094">
        <ele>244</ele>
        <time>2019-02-05T18:20:36Z</time>
      </trkpt>
      <trkpt lat="47.22641" lon="3.55054">
        <ele>244</ele>
        <time>2019-02-05T18:21:36Z</time>
      </trkpt>
      <trkpt lat="47.22608" lon="3.55021">
        <ele>245</ele>
        <time>2019-02-05T18:22:36Z</time>
      </trkpt>
      <trkpt lat="47.2258" lon="3.55009">
        <ele>247</ele>
        <time>2019-02-05T18:23:36Z</time>
      </trkpt>
      <trkpt lat="47.22558" lon="3.54966">
        <ele>247</ele>
        <time>2019-02-05T18:24:36Z</time>
      </trkpt>
      <trkpt lat="47.2254" lon="3.54888">
        <ele>245</ele>
        <time>2019-02-05T18:25:36Z</time>
      </trkpt>
      <trkpt lat="47.22508" lon="3.5476">
        <ele>241</ele>
        <time>2019-02-05T18:26:36Z</time>
      </trkpt>
      <trkpt lat="47.22493" lon="3.54739">
        <ele>241</ele>
        <time>2019-02-05T18:27:36Z</time>
      </trkpt>
      <trkpt lat="47.2239" lon="3.54597">
        <ele>242</ele>
        <time>2019-02-05T18:28:36Z</time>
      </trkpt>
      <trkpt lat="47.22333" lon="3.54555">
        <ele>244</ele>
        <time>2019-02-05T18:29:36Z</time>
      </trkpt>
      <trkpt lat="47.22278" lon="3.54543">
        <ele>247</ele>
        <time>2019-02-05T18:30:36Z</time>
      </trkpt>
      <trkpt lat="47.22232" lon="3.54532">
        <ele>249</ele>
        <time>2019-02-05T18:31:36Z</time>
      </trkpt>
      <trkpt lat="47.22195" lon="3.54496">
        <ele>251</ele>
        <time>2019-02-05T18:32:36Z</time>
      </trkpt>
      <trkpt lat="47.22161" lon="3.54454">
        <ele>251</ele>
        <time>2019-02-05T18:33:36Z</time>
      </trkpt>
      <trkpt lat="47.22085" lon="3.54398">
        <ele>254</ele>
        <time>2019-02-05T18:34:36Z</time>
      </trkpt>
      <trkpt lat="47.2199" lon="3.54314">
        <ele>261</ele>
        <time>2019-02-05T18:35:36Z</time>
      </trkpt>
      <trkpt lat="47.21953" lon="3.54282">
        <ele>263</ele>
        <time>2019-02-05T18:36:36Z</time>
      </trkpt>
      <trkpt lat="47.21936" lon="3.54226">
        <ele>264</ele>
        <time>2019-02-05T18:37:36Z</time>
      </trkpt>
      <trkpt lat="47.21924" lon="3.5414">
        <ele>263</ele>
        <time>2019-02-05T18:38:36Z</time>
      </trkpt>
      <trkpt lat="47.21879" lon="3.54024">
        <ele>259</ele>
        <time>2019-02-05T18:39:36Z</time>
      </trkpt>
      <trkpt lat="47.21781" lon="3.53763">
        <ele>248</ele>
        <time>2019-02-05T18:40:36Z</time>
      </trkpt>
      <trkpt lat="47.21762" lon="3.5373">
        <ele>248</ele>
        <time>2019-02-05T18:41:36Z</time>
      </trkpt>
      <trkpt lat="47.21715" lon="3.53647">
        <ele>247</ele>
        <time>2019-02-05T18:42:36Z</time>
      </trkpt>
      <trkpt lat="47.21653" lon="3.53536">
        <ele>246</ele>
        <time>2019-02-05T18:43:36Z</time>
      </trkpt>
      <trkpt lat="47.21603" lon="3.53422">
        <ele>247</ele>
        <time>2019-02-05T18:44:36Z</time>
      </trkpt>
      <trkpt lat="47.21595" lon="3.53377">
        <ele>248</ele>
        <time>2019-02-05T18:45:36Z</time>
      </trkpt>
      <trkpt lat="47.21588" lon="3.53308">
        <ele>248</ele>
        <time>2019-02-05T18:46:36Z</time>
      </trkpt>
      <trkpt lat="47.21592" lon="3.53232">
        <ele>248</ele>
        <time>2019-02-05T18:47:36Z</time>
      </trkpt>
      <trkpt lat="47.21588" lon="3.53143">
        <ele>249</ele>
        <time>2019-02-05T18:48:36Z</time>
      </trkpt>
      <trkpt lat="47.21581" lon="3.5309">
        <ele>251</ele>
        <time>2019-02-05T18:49:36Z</time>
      </trkpt>
      <trkpt lat="47.21559" lon="3.53031">
        <ele>253</ele>
        <time>2019-02-05T18:50:36Z</time>
      </trkpt>
      <trkpt lat="47.21557" lon="3.52957">
        <ele>254</ele>
        <time>2019-02-05T18:51:36Z</time>
      </trkpt>
      <trkpt lat="47.21551" lon="3.52852">
        <ele>251</ele>
        <time>2019-02-05T18:52:36Z</time>
      </trkpt>
      <trkpt lat="47.21546" lon="3.52784">
        <ele>249</ele>
        <time>2019-02-05T18:53:36Z</time>
      </trkpt>
      <trkpt lat="47.21521" lon="3.52699">
        <ele>247</ele>
        <time>2019-02-05T18:54:36Z</time>
      </trkpt>
      <trkpt lat="47.21511" lon="3.5262">
        <ele>245</ele>
        <time>2019-02-05T18:55:36Z</time>
      </trkpt>
      <trkpt lat="47.21497" lon="3.52379">
        <ele>240</ele>
        <time>2019-02-05T18:56:36Z</time>
      </trkpt>
      <trkpt lat="47.21474" lon="3.52251">
        <ele>240</ele>
        <time>2019-02-05T18:57:36Z</time>
      </trkpt>
      <trkpt lat="47.21458" lon="3.52116">
        <ele>241</ele>
        <time>2019-02-05T18:58:36Z</time>
      </trkpt>
      <trkpt lat="47.21456" lon="3.52048">
        <ele>241</ele>
        <time>2019-02-05T18:59:36Z</time>
      </trkpt>
      <trkpt lat="47.21433" lon="3.51977">
        <ele>243</ele>
        <time>2019-02-05T19:00:36Z</time>
      </trkpt>
      <trkpt lat="47.21369" lon="3.51813">
        <ele>241</ele>
        <time>2019-02-05T19:01:36Z</time>
      </trkpt>
      <trkpt lat="47.21343" lon="3.51784">
        <ele>241</ele>
        <time>2019-02-05T19:02:36Z</time>
      </trkpt>
      <trkpt lat="47.21302" lon="3.51714">
        <ele>240</ele>
        <time>2019-02-05T19:03:36Z</time>
      </trkpt>
      <trkpt lat="47.21243" lon="3.51505">
        <ele>243</ele>
        <time>2019-02-05T19:04:36Z</time>
      </trkpt>
      <trkpt lat="47.21211" lon="3.51437">
        <ele>244</ele>
        <time>2019-02-05T19:05:36Z</time>
      </trkpt>
      <trkpt lat="47.21185" lon="3.51385">
        <ele>244</ele>
        <time>2019-02-05T19:06:36Z</time>
      </trkpt>
      <trkpt lat="47.2118" lon="3.51352">
        <ele>244</ele>
        <time>2019-02-05T19:07:36Z</time>
      </trkpt>
      <trkpt lat="47.2118" lon="3.51329">
        <ele>244</ele>
        <time>2019-02-05T19:08:36Z</time>
      </trkpt>
      <trkpt lat="47.21227" lon="3.51239">
        <ele>251</ele>
        <time>2019-02-05T19:09:36Z</time>
      </trkpt>
      <trkpt lat="47.21256" lon="3.51191">
        <ele>256</ele>
        <time>2019-02-05T19:10:36Z</time>
      </trkpt>
      <trkpt lat="47.21263" lon="3.51151">
        <ele>259</ele>
        <time>2019-02-05T19:11:36Z</time>
      </trkpt>
      <trkpt lat="47.21259" lon="3.51127">
        <ele>260</ele>
        <time>2019-02-05T19:12:36Z</time>
      </trkpt>
      <trkpt lat="47.21228" lon="3.51092">
        <ele>261</ele>
        <time>2019-02-05T19:13:36Z</time>
      </trkpt>
      <trkpt lat="47.2121" lon="3.51056">
        <ele>264</ele>
        <time>2019-02-05T19:14:36Z</time>
      </trkpt>
      <trkpt lat="47.21197" lon="3.51004">
        <ele>268</ele>
        <time>2019-02-05T19:15:36Z</time>
      </trkpt>
      <trkpt lat="47.21195" lon="3.50971">
        <ele>272</ele>
        <time>2019-02-05T19:16:36Z</time>
      </trkpt>
      <trkpt lat="47.21204" lon="3.50898">
        <ele>281</ele>
        <time>2019-02-05T19:17:36Z</time>
      </trkpt>
      <trkpt lat="47.21217" lon="3.50846">
        <ele>287</ele>
        <time>2019-02-05T19:18:36Z</time>
      </trkpt>
      <trkpt lat="47.21224" lon="3.50815">
        <ele>289</ele>
        <time>2019-02-05T19:19:36Z</time>
      </trkpt>
      <trkpt lat="47.2122" lon="3.50789">
        <ele>290</ele>
        <time>2019-02-05T19:20:36Z</time>
      </trkpt>
      <trkpt lat="47.21198" lon="3.50743">
        <ele>293</ele>
        <time>2019-02-05T19:21:36Z</time>
      </trkpt>
      <trkpt lat="47.21194" lon="3.50719">
        <ele>294</ele>
        <time>2019-02-05T19:22:36Z</time>
      </trkpt>
      <trkpt lat="47.21189" lon="3.50692">
        <ele>295</ele>
        <time>2019-02-05T19:23:36Z</time>
      </trkpt>
      <trkpt lat="47.21156" lon="3.50643">
        <ele>298</ele>
        <time>2019-02-05T19:24:36Z</time>
      </trkpt>
      <trkpt lat="47.2113" lon="3.50593">
        <ele>299</ele>
        <time>2019-02-05T19:25:36Z</time>
      </trkpt>
      <trkpt lat="47.2112" lon="3.50546">
        <ele>300</ele>
        <time>2019-02-05T19:26:36Z</time>
      </trkpt>
      <trkpt lat="47.21102" lon="3.50499">
        <ele>302</ele>
        <time>2019-02-05T19:27:36Z</time>
      </trkpt>
      <trkpt lat="47.21104" lon="3.50423">
        <ele>302</ele>
        <time>2019-02-05T19:28:36Z</time>
      </trkpt>
      <trkpt lat="47.21122" lon="3.50318">
        <ele>303</ele>
        <time>2019-02-05T19:29:36Z</time>
      </trkpt>
      <trkpt lat="47.21134" lon="3.50273">
        <ele>303</ele>
        <time>2019-02-05T19:30:36Z</time>
      </trkpt>
      <trkpt lat="47.21144" lon="3.5025">
        <ele>303</ele>
        <time>2019-02-05T19:31:36Z</time>
      </trkpt>
      <trkpt lat="47.21107" lon="3.5022">
        <ele>303</ele>
        <time>2019-02-05T19:32:36Z</time>
      </trkpt>
      <trkpt lat="47.21081" lon="3.50191">
        <ele>303</ele>
        <time>2019-02-05T19:33:36Z</time>
      </trkpt>
      <trkpt lat="47.21063" lon="3.50188">
        <ele>302</ele>
        <time>2019-02-05T19:34:36Z</time>
      </trkpt>
      <trkpt lat="47.21041" lon="3.50142">
        <ele>302</ele>
        <time>2019-02-05T19:35:36Z</time>
      </trkpt>
      <trkpt lat="47.2101" lon="3.50085">
        <ele>301</ele>
        <time>2019-02-05T19:36:36Z</time>
      </trkpt>
      <trkpt lat="47.20993" lon="3.50086">
        <ele>301</ele>
        <time>2019-02-05T19:37:36Z</time>
      </trkpt>
      <trkpt lat="47.20982" lon="3.50082">
        <ele>301</ele>
        <time>2019-02-05T19:38:36Z</time>
      </trkpt>
      <trkpt lat="47.20974" lon="3.50013">
        <ele>304</ele>
        <time>2019-02-05T19:39:36Z</time>
      </trkpt>
      <trkpt lat="47.20966" lon="3.49927">
        <ele>307</ele>
        <time>2019-02-05T19:40:36Z</time>
      </trkpt>
      <trkpt lat="47.20973" lon="3.49853">
        <ele>311</ele>
        <time>2019-02-05T19:41:36Z</time>
      </trkpt>
      <trkpt lat="47.20974" lon="3.49798">
        <ele>314</ele>
        <time>2019-02-05T19:42:36Z</time>
      </trkpt>
      <trkpt lat="47.20952" lon="3.49639">
        <ele>328</ele>
        <time>2019-02-05T19:43:36Z</time>
      </trkpt>
      <trkpt lat="47.2094" lon="3.49604">
        <ele>333</ele>
        <time>2019-02-05T19:44:36Z</time>
      </trkpt>
      <trkpt lat="47.20911" lon="3.49557">
        <ele>340</ele>
        <time>2019-02-05T19:45:36Z</time>
      </trkpt>
      <trkpt lat="47.20859" lon="3.4952">
        <ele>345</ele>
        <time>2019-02-05T19:46:36Z</time>
      </trkpt>
      <trkpt lat="47.20825" lon="3.49476">
        <ele>346</ele>
        <time>2019-02-05T19:47:36Z</time>
      </trkpt>
      <trkpt lat="47.20791" lon="3.49384">
        <ele>344</ele>
        <time>2019-02-05T19:48:36Z</time>
      </trkpt>
      <trkpt lat="47.20772" lon="3.49341">
        <ele>343</ele>
        <time>2019-02-05T19:49:36Z</time>
      </trkpt>
      <trkpt lat="47.2076" lon="3.49231">
        <ele>341</ele>
        <time>2019-02-05T19:50:36Z</time>
      </trkpt>
      <trkpt lat="47.20754" lon="3.49014">
        <ele>332</ele>
        <time>2019-02-05T19:51:36Z</time>
      </trkpt>
      <trkpt lat="47.20728" lon="3.489">
        <ele>330</ele>
        <time>2019-02-05T19:52:36Z</time>
      </trkpt>
      <trkpt lat="47.207" lon="3.48901">
        <ele>329</ele>
        <time>2019-02-05T19:53:36Z</time>
      </trkpt>
      <trkpt lat="47.20658" lon="3.48875">
        <ele>328</ele>
        <time>2019-02-05T19:54:36Z</time>
      </trkpt>
      <trkpt lat="47.20494" lon="3.48783">
        <ele>330</ele>
        <time>2019-02-05T19:55:36Z</time>
      </trkpt>
      <trkpt lat="47.20393" lon="3.48727">
        <ele>330</ele>
        <time>2019-02-05T19:56:36Z</time>
      </trkpt>
      <trkpt lat="47.20381" lon="3.48731">
        <ele>331</ele>
        <time>2019-02-05T19:57:36Z</time>
      </trkpt>
      <trkpt lat="47.20358" lon="3.48686">
        <ele>329</ele>
        <time>2019-02-05T19:58:36Z</time>
      </trkpt>
      <trkpt lat="47.20303" lon="3.48604">
        <ele>327</ele>
        <time>2019-02-05T19:59:36Z</time>
      </trkpt>
      <trkpt lat="47.20243" lon="3.48513">
        <ele>326</ele>
        <time>2019-02-05T20:00:36Z</time>
      </trkpt>
      <trkpt lat="47.20189" lon="3.48343">
        <ele>321</ele>
        <time>2019-02-05T20:01:36Z</time>
      </trkpt>
      <trkpt lat="47.20168" lon="3.48222">
        <ele>316</ele>
        <time>2019-02-05T20:02:36Z</time>
      </trkpt>
      <trkpt lat="47.20149" lon="3.48159">
        <ele>314</ele>
        <time>2019-02-05T20:03:36Z</time>
      </trkpt>
      <trkpt lat="47.20087" lon="3.48042">
        <ele>311</ele>
        <time>2019-02-05T20:04:36Z</time>
      </trkpt>
      <trkpt lat="47.20017" lon="3.47798">
        <ele>310</ele>
        <time>2019-02-05T20:05:36Z</time>
      </trkpt>
      <trkpt lat="47.20005" lon="3.47672">
        <ele>311</ele>
        <time>2019-02-05T20:06:36Z</time>
      </trkpt>
      <trkpt lat="47.20008" lon="3.47574">
        <ele>308</ele>
        <time>2019-02-05T20:07:36Z</time>
      </trkpt>
      <trkpt lat="47.20021" lon="3.47449">
        <ele>305</ele>
        <time>2019-02-05T20:08:36Z</time>
      </trkpt>
      <trkpt lat="47.2002" lon="3.47379">
        <ele>304</ele>
        <time>2019-02-05T20:09:36Z</time>
      </trkpt>
      <trkpt lat="47.20011" lon="3.47338">
        <ele>304</ele>
        <time>2019-02-05T20:10:36Z</time>
      </trkpt>
      <trkpt lat="47.19998" lon="3.47247">
        <ele>302</ele>
        <time>2019-02-05T20:11:36Z</time>
      </trkpt>
      <trkpt lat="47.19981" lon="3.47117">
        <ele>300</ele>
        <time>2019-02-05T20:12:36Z</time>
      </trkpt>
      <trkpt lat="47.19944" lon="3.46933">
        <ele>300</ele>
        <time>2019-02-05T20:13:36Z</time>
      </trkpt>
      <trkpt lat="47.19921" lon="3.46848">
        <ele>302</ele>
        <time>2019-02-05T20:14:36Z</time>
      </trkpt>
      <trkpt lat="47.1982" lon="3.46637">
        <ele>302</ele>
        <time>2019-02-05T20:15:36Z</time>
      </trkpt>
      <trkpt lat="47.19759" lon="3.46499">
        <ele>305</ele>
        <time>2019-02-05T20:16:36Z</time>
      </trkpt>
      <trkpt lat="47.19695" lon="3.46424">
        <ele>308</ele>
        <time>2019-02-05T20:17:36Z</time>
      </trkpt>
      <trkpt lat="47.19615" lon="3.46342">
        <ele>313</ele>
        <time>2019-02-05T20:18:36Z</time>
      </trkpt>
      <trkpt lat="47.19571" lon="3.46293">
        <ele>319</ele>
        <time>2019-02-05T20:19:36Z</time>
      </trkpt>
      <trkpt lat="47.19556" lon="3.46263">
        <ele>323</ele>
        <time>2019-02-05T20:20:36Z</time>
      </trkpt>
      <trkpt lat="47.19548" lon="3.46205">
        <ele>326</ele>
        <time>2019-02-05T20:21:36Z</time>
      </trkpt>
      <trkpt lat="47.19532" lon="3.46167">
        <ele>327</ele>
        <time>2019-02-05T20:22:36Z</time>
      </trkpt>
      <trkpt lat="47.19511" lon="3.46093">
        <ele>327</ele>
        <time>2019-02-05T20:23:36Z</time>
      </trkpt>
      <trkpt lat="47.194" lon="3.46009">
        <ele>325</ele>
        <time>2019-02-05T20:24:36Z</time>
      </trkpt>
      <trkpt lat="47.19376" lon="3.4597">
        <ele>324</ele>
        <time>2019-02-05T20:25:36Z</time>
      </trkpt>
      <trkpt lat="47.19355" lon="3.45777">
        <ele>319</ele>
        <time>2019-02-05T20:26:36Z</time>
      </trkpt>
      <trkpt lat="47.19354" lon="3.45659">
        <ele>314</ele>
        <time>2019-02-05T20:27:36Z</time>
      </trkpt>
      <trkpt lat="47.19341" lon="3.45597">
        <ele>312</ele>
        <time>2019-02-05T20:28:36Z</time>
      </trkpt>
      <trkpt lat="47.19348" lon="3.45545">
        <ele>311</ele>
        <time>2019-02-05T20:29:36Z</time>
      </trkpt>
      <trkpt lat="47.19354" lon="3.45471">
        <ele>308</ele>
        <time>2019-02-05T20:30:36Z</time>
      </trkpt>
      <trkpt lat="47.19347" lon="3.45418">
        <ele>306</ele>
        <time>2019-02-05T20:31:36Z</time>
      </trkpt>
      <trkpt lat="47.19324" lon="3.45367">
        <ele>305</ele>
        <time>2019-02-05T20:32:36Z</time>
      </trkpt>
      <trkpt lat="47.19291" lon="3.45314">
        <ele>305</ele>
        <time>2019-02-05T20:33:36Z</time>
      </trkpt>
      <trkpt lat="47.1927" lon="3.45261">
        <ele>304</ele>
        <time>2019-02-05T20:34:36Z</time>
      </trkpt>
      <trkpt lat="47.19251" lon="3.4524">
        <ele>305</ele>
        <time>2019-02-05T20:35:36Z</time>
      </trkpt>
      <trkpt lat="47.19239" lon="3.45231">
        <ele>305</ele>
        <time>2019-02-05T20:36:36Z</time>
      </trkpt>
      <trkpt lat="47.19233" lon="3.45175">
        <ele>305</ele>
        <time>2019-02-05T20:37:36Z</time>
      </trkpt>
      <trkpt lat="47.19212" lon="3.45114">
        <ele>304</ele>
        <time>2019-02-05T20:38:36Z</time>
      </trkpt>
      <trkpt lat="47.19186" lon="3.4505">
        <ele>303</ele>
        <time>2019-02-05T20:39:36Z</time>
      </trkpt>
      <trkpt lat="47.1916" lon="3.44965">
        <ele>302</ele>
        <time>2019-02-05T20:40:36Z</time>
      </trkpt>
      <trkpt lat="47.19121" lon="3.44861">
        <ele>299</ele>
        <time>2019-02-05T20:41:36Z</time>
      </trkpt>
      <trkpt lat="47.19077" lon="3.44802">
        <ele>298</ele>
        <time>2019-02-05T20:42:36Z</time>
      </trkpt>
      <trkpt lat="47.19043" lon="3.44761">
        <ele>296</ele>
        <time>2019-02-05T20:43:36Z</time>
      </trkpt>
      <trkpt lat="47.19014" lon="3.44732">
        <ele>294</ele>
        <time>2019-02-05T20:44:36Z</time>
      </trkpt>
      <trkpt lat="47.18974" lon="3.44635">
        <ele>289</ele>
        <time>2019-02-05T20:45:36Z</time>
      </trkpt>
      <trkpt lat="47.18943" lon="3.44554">
        <ele>284</ele>
        <time>2019-02-05T20:46:36Z</time>
      </trkpt>
      <trkpt lat="47.18932" lon="3.44465">
        <ele>278</ele>
        <time>2019-02-05T20:47:36Z</time>
      </trkpt>
      <trkpt lat="47.18922" lon="3.44419">
        <ele>274</ele>
        <time>2019-02-05T20:48:36Z</time>
      </trkpt>
      <trkpt lat="47.18912" lon="3.44389">
        <ele>272</ele>
        <time>2019-02-05T20:49:36Z</time>
      </trkpt>
      <trkpt lat="47.18864" lon="3.44355">
        <ele>269</ele>
        <time>2019-02-05T20:50:36Z</time>
      </trkpt>
      <trkpt lat="47.18859" lon="3.44296">
        <ele>266</ele>
        <time>2019-02-05T20:51:36Z</time>
      </trkpt>
      <trkpt lat="47.18846" lon="3.44222">
        <ele>264</ele>
        <time>2019-02-05T20:52:36Z</time>
      </trkpt>
      <trkpt lat="47.18696" lon="3.43721">
        <ele>266</ele>
        <time>2019-02-05T20:53:36Z</time>
      </trkpt>
      <trkpt lat="47.18656" lon="3.43624">
        <ele>267</ele>
        <time>2019-02-05T20:54:36Z</time>
      </trkpt>
      <trkpt lat="47.18541" lon="3.43349">
        <ele>274</ele>
        <time>2019-02-05T20:55:36Z</time>
      </trkpt>
      <trkpt lat="47.1842" lon="3.42984">
        <ele>265</ele>
        <time>2019-02-05T20:56:36Z</time>
      </trkpt>
      <trkpt lat="47.18376" lon="3.42818">
        <ele>257</ele>
        <time>2019-02-05T20:57:36Z</time>
      </trkpt>
      <trkpt lat="47.18354" lon="3.42696">
        <ele>252</ele>
        <time>2019-02-05T20:58:36Z</time>
      </trkpt>
      <trkpt lat="47.18349" lon="3.42591">
        <ele>249</ele>
        <time>2019-02-05T20:59:36Z</time>
      </trkpt>
      <trkpt lat="47.18355" lon="3.42438">
        <ele>247</ele>
        <time>2019-02-05T21:00:36Z</time>
      </trkpt>
      <trkpt lat="47.18385" lon="3.42297">
        <ele>248</ele>
        <time>2019-02-05T21:01:36Z</time>
      </trkpt>
      <trkpt lat="47.18425" lon="3.42169">
        <ele>246</ele>
        <time>2019-02-05T21:02:36Z</time>
      </trkpt>
      <trkpt lat="47.1844" lon="3.42108">
        <ele>246</ele>
        <time>2019-02-05T21:03:36Z</time>
      </trkpt>
      <trkpt lat="47.18441" lon="3.42046">
        <ele>245</ele>
        <time>2019-02-05T21:04:36Z</time>
      </trkpt>
      <trkpt lat="47.18373" lon="3.41542">
        <ele>250</ele>
        <time>2019-02-05T21:05:36Z</time>
      </trkpt>
      <trkpt lat="47.18327" lon="3.4119">
        <ele>250</ele>
        <time>2019-02-05T21:06:36Z</time>
      </trkpt>
      <trkpt lat="47.18329" lon="3.40747">
        <ele>250</ele>
        <time>2019-02-05T21:07:36Z</time>
      </trkpt>
      <trkpt lat="47.18342" lon="3.40635">
        <ele>251</ele>
        <time>2019-02-05T21:08:36Z</time>
      </trkpt>
      <trkpt lat="47.18306" lon="3.39878">
        <ele>263</ele>
        <time>2019-02-05T21:09:36Z</time>
      </trkpt>
      <trkpt lat="47.18293" lon="3.39808">
        <ele>263</ele>
        <time>2019-02-05T21:10:36Z</time>
      </trkpt>
      <trkpt lat="47.18237" lon="3.39603">
        <ele>266</ele>
        <time>2019-02-05T21:11:36Z</time>
      </trkpt>
      <trkpt lat="47.18233" lon="3.39512">
        <ele>266</ele>
        <time>2019-02-05T21:12:36Z</time>
      </trkpt>
      <trkpt lat="47.1805" lon="3.39417">
        <ele>272</ele>
        <time>2019-02-05T21:13:36Z</time>
      </trkpt>
      <trkpt lat="47.17872" lon="3.39293">
        <ele>283</ele>
        <time>2019-02-05T21:14:36Z</time>
      </trkpt>
      <trkpt lat="47.17787" lon="3.39203">
        <ele>284</ele>
        <time>2019-02-05T21:15:36Z</time>
      </trkpt>
      <trkpt lat="47.17685" lon="3.39083">
        <ele>281</ele>
        <time>2019-02-05T21:16:36Z</time>
      </trkpt>
      <trkpt lat="47.17571" lon="3.39061">
        <ele>278</ele>
        <time>2019-02-05T21:17:36Z</time>
      </trkpt>
      <trkpt lat="47.17373" lon="3.39104">
        <ele>273</ele>
        <time>2019-02-05T21:18:36Z</time>
      </trkpt>
      <trkpt lat="47.17265" lon="3.39121">
        <ele>271</ele>
        <time>2019-02-05T21:19:36Z</time>
      </trkpt>
      <trkpt lat="47.17177" lon="3.39203">
        <ele>266</ele>
        <time>2019-02-05T21:20:36Z</time>
      </trkpt>
      <trkpt lat="47.17128" lon="3.39233">
        <ele>262</ele>
        <time>2019-02-05T21:21:36Z</time>
      </trkpt>
      <trkpt lat="47.17063" lon="3.39237">
        <ele>255</ele>
        <time>2019-02-05T21:22:36Z</time>
      </trkpt>
      <trkpt lat="47.17028" lon="3.39216">
        <ele>251</ele>
        <time>2019-02-05T21:23:36Z</time>
      </trkpt>
      <trkpt lat="47.16938" lon="3.3898">
        <ele>240</ele>
        <time>2019-02-05T21:24:36Z</time>
      </trkpt>
      <trkpt lat="47.16923" lon="3.38865">
        <ele>241</ele>
        <time>2019-02-05T21:25:36Z</time>
      </trkpt>
      <trkpt lat="47.16944" lon="3.38784">
        <ele>242</ele>
        <time>2019-02-05T21:26:36Z</time>
      </trkpt>
      <trkpt lat="47.16956" lon="3.386">
        <ele>241</ele>
        <time>2019-02-05T21:27:36Z</time>
      </trkpt>
      <trkpt lat="47.16954" lon="3.38447">
        <ele>243</ele>
        <time>2019-02-05T21:28:36Z</time>
      </trkpt>
      <trkpt lat="47.16954" lon="3.38378">
        <ele>244</ele>
        <time>2019-02-05T21:29:36Z</time>
      </trkpt>
      <trkpt lat="47.16972" lon="3.38296">
        <ele>245</ele>
        <time>2019-02-05T21:30:36Z</time>
      </trkpt>
      <trkpt lat="47.16966" lon="3.38209">
        <ele>247</ele>
        <time>2019-02-05T21:31:36Z</time>
      </trkpt>
      <trkpt lat="47.16992" lon="3.38151">
        <ele>249</ele>
        <time>2019-02-05T21:32:36Z</time>
      </trkpt>
      <trkpt lat="47.17079" lon="3.38064">
        <ele>246</ele>
        <time>2019-02-05T21:33:36Z</time>
      </trkpt>
      <trkpt lat="47.17105" lon="3.3799">
        <ele>246</ele>
        <time>2019-02-05T21:34:36Z</time>
      </trkpt>
      <trkpt lat="47.17102" lon="3.37944">
        <ele>247</ele>
        <time>2019-02-05T21:35:36Z</time>
      </trkpt>
      <trkpt lat="47.17053" lon="3.37837">
        <ele>251</ele>
        <time>2019-02-05T21:36:36Z</time>
      </trkpt>
      <trkpt lat="47.16985" lon="3.37801">
        <ele>254</ele>
        <time>2019-02-05T21:37:36Z</time>
      </trkpt>
      <trkpt lat="47.16954" lon="3.37765">
        <ele>255</ele>
        <time>2019-02-05T21:38:36Z</time>
      </trkpt>
      <trkpt lat="47.16961" lon="3.37702">
        <ele>255</ele>
        <time>2019-02-05T21:39:36Z</time>
      </trkpt>
      <trkpt lat="47.16994" lon="3.37531">
        <ele>256</ele>
        <time>2019-02-05T21:40:36Z</time>
      </trkpt>
      <trkpt lat="47.16999" lon="3.37459">
        <ele>257</ele>
        <time>2019-02-05T21:41:36Z</time>
      </trkpt>
      <trkpt lat="47.16985" lon="3.37431">
        <ele>259</ele>
        <time>2019-02-05T21:42:36Z</time>
      </trkpt>
      <trkpt lat="47.16895" lon="3.3735">
        <ele>266</ele>
        <time>2019-02-05T21:43:36Z</time>
      </trkpt>
      <trkpt lat="47.1686" lon="3.37309">
        <ele>269</ele>
        <time>2019-02-05T21:44:36Z</time>
      </trkpt>
      <trkpt lat="47.16845" lon="3.37245">
        <ele>269</ele>
        <time>2019-02-05T21:45:36Z</time>
      </trkpt>
      <trkpt lat="47.16864" lon="3.37161">
        <ele>266</ele>
        <time>2019-02-05T21:46:36Z</time>
      </trkpt>
      <trkpt lat="47.16888" lon="3.36893">
        <ele>266</ele>
        <time>2019-02-05T21:47:36Z</time>
      </trkpt>
      <trkpt lat="47.16841" lon="3.36375">
        <ele>277</ele>
        <time>2019-02-05T21:48:36Z</time>
      </trkpt>
      <trkpt lat="47.16862" lon="3.36293">
        <ele>275</ele>
        <time>2019-02-05T21:49:36Z</time>
      </trkpt>
      <trkpt lat="47.16897" lon="3.35997">
        <ele>272</ele>
        <time>2019-02-05T21:50:36Z</time>
      </trkpt>
      <trkpt lat="47.17003" lon="3.34981">
        <ele>255</ele>
        <time>2019-02-05T21:51:36Z</time>
      </trkpt>
      <trkpt lat="47.17039" lon="3.34665">
        <ele>247</ele>
        <time>2019-02-05T21:52:36Z</time>
      </trkpt>
      <trkpt lat="47.17187" lon="3.344">
        <ele>245</ele>
        <time>2019-02-05T21:53:36Z</time>
      </trkpt>
      <trkpt lat="47.17289" lon="3.34063">
        <ele>238</ele>
        <time>2019-02-05T21:54:36Z</time>
      </trkpt>
      <trkpt lat="47.17308" lon="3.33989">
        <ele>239</ele>
        <time>2019-02-05T21:55:36Z</time>
      </trkpt>
      <trkpt lat="47.17306" lon="3.33948">
        <ele>238</ele>
        <time>2019-02-05T21:56:36Z</time>
      </trkpt>
      <trkpt lat="47.17352" lon="3.33953">
        <ele>237</ele>
        <time>2019-02-05T21:57:36Z</time>
      </trkpt>
      <trkpt lat="47.17454" lon="3.33203">
        <ele>232</ele>
        <time>2019-02-05T21:58:36Z</time>
      </trkpt>
      <trkpt lat="47.17492" lon="3.33209">
        <ele>232</ele>
        <time>2019-02-05T21:59:36Z</time>
      </trkpt>
      <trkpt lat="47.17493" lon="3.3319">
        <ele>233</ele>
        <time>2019-02-05T22:00:36Z</time>
      </trkpt>
      <trkpt lat="47.17515" lon="3.3319">
        <ele>233</ele>
        <time>2019-02-05T22:01:36Z</time>
      </trkpt>
      <trkpt lat="47.1752" lon="3.33131">
        <ele>233</ele>
        <time>2019-02-05T22:02:36Z</time>
      </trkpt>
      <trkpt lat="47.17528" lon="3.33105">
        <ele>233</ele>
        <time>2019-02-05T22:03:36Z</time>
      </trkpt>
      <trkpt lat="47.17533" lon="3.3308">
        <ele>233</ele>
        <time>2019-02-05T22:04:36Z</time>
      </trkpt>
      <trkpt lat="47.17573" lon="3.33091">
        <ele>234</ele>
        <time>2019-02-05T22:05:36Z</time>
      </trkpt>
      <trkpt lat="47.17618" lon="3.33091">
        <ele>233</ele>
        <time>2019-02-05T22:06:36Z</time>
      </trkpt>
      <trkpt lat="47.17646" lon="3.3309">
        <ele>232</ele>
        <time>2019-02-05T22:07:36Z</time>
      </trkpt>
    </trkseg>
  </trk>
</gpx>